Time;durP1;ratioP1;P1;durP2;ratioP2;P2;SDS_P1;SDS_P2;PMS_P1;PMS_P2;Temp;Humidity;BMP_temperature;BMP_pressure;BME280_temperature;BME280_humidity;BME280_pressure;Samples;Min_cycle;Max_cycle;Signal;HPM_P1;HPM_P2
2023/07/15 00:01:30;;;;;;;;;;;;;;;31.80;29.07;98213.53;5117456;28;20399;-85
2023/07/15 00:03:57;;;;;;;;;;;;;;;31.67;29.73;98208.09;5116977;28;19935;-85
2023/07/15 00:06:24;;;;;;;;;;;;;;;31.59;29.37;98206.13;5117825;28;19930;-85
2023/07/15 00:08:51;;;;;;;;;;;;;;;31.65;29.53;98204.97;5117602;28;19919;-86
2023/07/15 00:11:31;;;;;;;;;;;;;;;31.74;28.97;98212.66;5117403;28;20006;-86
2023/07/15 00:13:58;;;;;;;;;;;;;;;31.74;29.22;98206.97;5097673;28;19916;-86
2023/07/15 00:16:24;;;;;;;;;;;;;;;31.84;28.88;98209.25;5117164;28;20310;-85
2023/07/15 00:18:50;;;;;;;;;;;;;;;31.85;28.79;98202.31;5117117;28;19916;-85
2023/07/15 00:21:22;;;;;;;;;;;;;;;31.62;29.59;98203.09;5112203;28;20384;-85
2023/07/15 00:23:53;;;;;;;;;;;;;;;31.52;29.19;98203.63;5116745;28;19916;-85
2023/07/15 00:26:20;;;;;;;;;;;;;;;31.46;29.45;98208.41;5113764;28;19992;-85
2023/07/15 00:28:46;;;;;;;;;;;;;;;31.46;29.60;98208.41;5096940;28;19969;-85
2023/07/15 00:31:13;;;;;;;;;;;;;;;31.44;29.71;98208.88;5116729;28;19919;-85
2023/07/15 00:33:40;;;;;;;;;;;;;;;31.55;29.29;98202.69;5116844;28;19915;-86
2023/07/15 00:36:06;;;;;;;;;;;;;;;31.34;29.83;98201.66;5116545;28;19949;-86
2023/07/15 00:38:34;;;;;;;;;;;;;;;31.16;29.68;98202.53;5097383;28;19916;-85
2023/07/15 00:41:00;;;;;;;;;;;;;;;31.13;30.05;98212.00;5116602;28;19916;-86
2023/07/15 00:43:44;;;;;;;;;;;;;;;31.39;29.70;98203.84;5116381;28;19916;-86
2023/07/15 00:46:22;;;;;;;;;;;;;;;31.25;29.60;98204.56;5112659;28;19916;-85
2023/07/15 00:49:03;;;;;;;;;;;;;;;31.14;30.06;98209.94;5096449;28;19916;-85
2023/07/15 00:51:31;;;;;;;;;;;;;;;31.08;30.04;98198.47;5096066;28;19924;-85
2023/07/15 00:53:57;;;;;;;;;;;;;;;31.03;30.04;98199.13;5096004;28;19920;-86
2023/07/15 00:56:25;;;;;;;;;;;;;;;31.18;29.97;98205.66;5095683;28;19916;-85
2023/07/15 00:58:52;;;;;;;;;;;;;;;31.05;30.00;98198.63;5095901;28;20436;-85
2023/07/15 01:01:18;;;;;;;;;;;;;;;30.86;30.35;98199.94;5095854;28;20022;-86
2023/07/15 01:03:45;;;;;;;;;;;;;;;30.91;30.39;98199.31;5086407;28;19957;-85
2023/07/15 01:06:11;;;;;;;;;;;;;;;31.12;29.49;98190.56;5097686;28;19930;-85
2023/07/15 01:08:37;;;;;;;;;;;;;;;31.13;29.59;98197.81;5116031;28;19916;-85
2023/07/15 01:11:06;;;;;;;;;;;;;;;31.25;29.85;98190.38;5115742;28;20018;-85
2023/07/15 01:13:32;;;;;;;;;;;;;;;31.30;29.42;98189.69;5115761;28;20431;-86
2023/07/15 01:15:58;;;;;;;;;;;;;;;31.12;29.83;98178.44;5097290;28;19920;-86
2023/07/15 01:18:24;;;;;;;;;;;;;;;31.12;29.73;98181.28;5095463;28;19977;-85
2023/07/15 01:20:50;;;;;;;;;;;;;;;31.19;29.54;98181.72;5098746;28;20299;-86
2023/07/15 01:23:17;;;;;;;;;;;;;;;31.14;29.59;98182.38;5095585;28;19920;-86
2023/07/15 01:25:43;;;;;;;;;;;;;;;31.18;29.45;98180.13;5076960;28;19916;-86
2023/07/15 01:28:09;;;;;;;;;;;;;;;31.33;29.06;98183.06;5095117;28;19939;-86
2023/07/15 01:30:35;;;;;;;;;;;;;;;31.21;29.35;98187.69;5077033;28;20276;-86
2023/07/15 01:33:01;;;;;;;;;;;;;;;31.12;29.21;98178.44;5095235;28;19964;-86
2023/07/15 01:35:27;;;;;;;;;;;;;;;31.37;28.87;98183.66;5094911;28;19924;-86
2023/07/15 01:37:53;;;;;;;;;;;;;;;31.46;28.83;98180.03;5095588;28;20363;-86
2023/07/15 01:40:21;;;;;;;;;;;;;;;31.49;28.94;98174.16;5094726;28;19920;-86
2023/07/15 01:42:47;;;;;;;;;;;;;;;31.67;28.93;98174.03;5094965;28;19965;-86
2023/07/15 01:45:13;;;;;;;;;;;;;;;31.74;28.26;98175.75;5094882;28;19916;-86
2023/07/15 01:47:39;;;;;;;;;;;;;;;31.66;28.71;98174.53;5096838;28;19915;-86
2023/07/15 01:50:06;;;;;;;;;;;;;;;31.69;28.60;98180.03;5115083;28;19918;-85
2023/07/15 01:52:32;;;;;;;;;;;;;;;31.78;28.33;98171.44;5115305;28;19973;-86
2023/07/15 01:54:58;;;;;;;;;;;;;;;31.90;27.96;98176.06;5103868;28;20329;-85
2023/07/15 01:57:25;;;;;;;;;;;;;;;31.70;28.24;98170.22;5094652;28;19923;-86
2023/07/15 01:59:57;;;;;;;;;;;;;;;31.68;28.65;98169.94;5094642;28;19920;-86
2023/07/15 02:02:23;;;;;;;;;;;;;;;31.79;28.38;98178.69;5094716;28;19952;-86
2023/07/15 02:04:50;;;;;;;;;;;;;;;31.78;28.39;98165.75;5094564;28;19917;-86
2023/07/15 02:07:16;;;;;;;;;;;;;;;31.82;28.78;98180.56;5094589;28;19920;-86
2023/07/15 02:09:42;;;;;;;;;;;;;;;31.72;28.94;98173.38;5094345;28;19920;-86
2023/07/15 02:12:08;;;;;;;;;;;;;;;31.69;28.92;98171.50;5095145;28;19916;-86
2023/07/15 02:14:36;;;;;;;;;;;;;;;31.63;28.86;98172.66;5099450;28;19916;-86
2023/07/15 02:17:03;;;;;;;;;;;;;;;31.55;28.59;98174.28;5114585;28;19927;-86
2023/07/15 02:19:32;;;;;;;;;;;;;;;31.60;28.86;98177.22;5114847;28;20015;-85
2023/07/15 02:21:58;;;;;;;;;;;;;;;31.72;28.37;98175.41;5103434;28;19916;-85
2023/07/15 02:24:24;;;;;;;;;;;;;;;31.67;28.38;98179.72;5093950;28;20334;-86
2023/07/15 02:26:51;;;;;;;;;;;;;;;31.68;28.66;98180.50;5094232;28;19916;-86
2023/07/15 02:29:17;;;;;;;;;;;;;;;31.76;28.65;98185.34;5094476;28;19923;-86
2023/07/15 02:31:44;;;;;;;;;;;;;;;31.96;28.28;98196.88;5094088;28;19943;-85
2023/07/15 02:34:10;;;;;;;;;;;;;;;32.03;28.25;98198.56;5093956;28;19920;-86
2023/07/15 02:36:36;;;;;;;;;;;;;;;32.13;28.03;98188.69;5093826;28;20455;-85
2023/07/15 02:39:04;;;;;;;;;;;;;;;32.40;28.13;98187.66;5093888;28;20321;-85
2023/07/15 02:41:33;;;;;;;;;;;;;;;32.42;27.54;98191.56;5094107;28;19919;-85
2023/07/15 02:43:59;;;;;;;;;;;;;;;32.20;28.18;98187.53;5093924;28;20406;-86
2023/07/15 02:46:25;;;;;;;;;;;;;;;32.09;28.00;98183.19;5081314;28;19923;-87
2023/07/15 02:48:51;;;;;;;;;;;;;;;32.14;28.35;98198.78;5104488;28;19919;-86
2023/07/15 02:51:19;;;;;;;;;;;;;;;32.20;28.28;98193.22;5109420;28;19920;-86
2023/07/15 02:53:47;;;;;;;;;;;;;;;32.33;28.42;98200.19;5086894;28;19931;-86
2023/07/15 02:56:13;;;;;;;;;;;;;;;32.37;28.30;98202.84;5108337;28;19943;-86
2023/07/15 02:58:41;;;;;;;;;;;;;;;32.41;28.08;98201.41;5113567;28;19919;-86
2023/07/15 03:01:09;;;;;;;;;;;;;;;32.48;27.80;98206.69;5111201;28;19927;-85
2023/07/15 03:03:38;;;;;;;;;;;;;;;32.49;27.69;98208.28;5108517;28;19979;-86
2023/07/15 03:06:04;;;;;;;;;;;;;;;32.65;27.65;98209.88;5109557;28;19968;-86
2023/07/15 03:08:30;;;;;;;;;;;;;;;32.48;27.53;98208.75;5111371;28;20006;-86
2023/07/15 03:10:56;;;;;;;;;;;;;;;32.42;27.95;98202.94;5113950;28;19938;-86
2023/07/15 03:13:25;;;;;;;;;;;;;;;32.37;27.62;98208.53;5112984;28;20461;-86
2023/07/15 03:15:55;;;;;;;;;;;;;;;32.56;27.49;98205.03;5101084;28;20447;-86
2023/07/15 03:18:24;;;;;;;;;;;;;;;32.52;27.69;98201.63;5106493;28;19927;-86
2023/07/15 03:20:50;;;;;;;;;;;;;;;32.58;28.11;98205.34;5103290;28;19926;-86
2023/07/15 03:23:16;;;;;;;;;;;;;;;32.44;28.42;98205.31;5107759;28;19920;-87
2023/07/15 03:25:42;;;;;;;;;;;;;;;32.31;27.92;98208.44;5110795;28;20421;-87
2023/07/15 03:28:08;;;;;;;;;;;;;;;32.24;28.50;98205.16;5114093;28;20007;-86
2023/07/15 03:30:34;;;;;;;;;;;;;;;32.36;28.04;98207.75;5112297;28;20410;-86
2023/07/15 03:33:00;;;;;;;;;;;;;;;32.39;27.86;98206.00;5099897;28;19915;-86
2023/07/15 03:35:26;;;;;;;;;;;;;;;32.36;28.42;98204.13;5110757;28;19924;-86
2023/07/15 03:37:53;;;;;;;;;;;;;;;32.35;28.17;98202.56;5080344;28;19974;-86
2023/07/15 03:40:19;;;;;;;;;;;;;;;32.55;28.22;98199.84;5112177;28;19916;-86
2023/07/15 03:42:45;;;;;;;;;;;;;;;32.93;27.89;98205.41;5110283;28;19912;-86
2023/07/15 03:45:11;;;;;;;;;;;;;;;33.38;27.01;98201.25;5092976;28;20372;-86
2023/07/15 03:47:37;;;;;;;;;;;;;;;33.60;26.91;98210.16;5105325;28;20375;-86
2023/07/15 03:50:04;;;;;;;;;;;;;;;33.67;27.32;98197.56;5113490;28;19911;-86
2023/07/15 03:52:30;;;;;;;;;;;;;;;33.52;27.88;98206.13;5109847;28;19984;-86
2023/07/15 03:54:57;;;;;;;;;;;;;;;33.68;27.93;98199.13;5104380;28;19916;-86
2023/07/15 03:57:23;;;;;;;;;;;;;;;33.68;27.29;98199.13;5113587;28;20264;-86
2023/07/15 03:59:49;;;;;;;;;;;;;;;33.72;27.42;98196.84;5113614;28;19916;-87
2023/07/15 04:02:16;;;;;;;;;;;;;;;34.08;26.39;98204.84;5106632;28;19927;-87
2023/07/15 04:04:43;;;;;;;;;;;;;;;34.15;26.57;98210.09;5110713;28;20018;-86
2023/07/15 04:07:09;;;;;;;;;;;;;;;34.15;26.34;98204.41;5110572;28;19919;-86
2023/07/15 04:09:36;;;;;;;;;;;;;;;34.20;26.54;98208.59;5112125;28;19922;-86
2023/07/15 04:12:02;;;;;;;;;;;;;;;34.24;26.70;98206.34;5104505;28;19971;-86
2023/07/15 04:14:29;;;;;;;;;;;;;;;34.36;26.57;98203.09;5103668;28;19927;-86
2023/07/15 04:16:55;;;;;;;;;;;;;;;34.45;26.68;98202.94;5116942;28;19920;-87
2023/07/15 04:19:21;;;;;;;;;;;;;;;34.60;26.76;98211.41;5119696;27;20272;-86
2023/07/15 04:21:47;;;;;;;;;;;;;;;34.75;27.04;98218.56;5115722;27;19969;-86
2023/07/15 04:24:13;;;;;;;;;;;;;;;34.84;26.50;98226.19;5116794;28;19920;-86
2023/07/15 04:26:39;;;;;;;;;;;;;;;34.87;26.42;98221.53;5113350;28;19924;-86
2023/07/15 04:29:06;;;;;;;;;;;;;;;34.90;26.25;98229.06;5101017;28;19927;-86
2023/07/15 04:31:32;;;;;;;;;;;;;;;34.94;26.72;98215.38;5113881;28;20422;-87
2023/07/15 04:33:58;;;;;;;;;;;;;;;35.01;26.40;98217.78;5107683;28;20272;-86
2023/07/15 04:36:24;;;;;;;;;;;;;;;35.21;26.43;98217.69;5100456;28;20443;-86
2023/07/15 04:38:50;;;;;;;;;;;;;;;35.32;26.39;98217.75;5096983;28;19926;-86
2023/07/15 04:41:16;;;;;;;;;;;;;;;35.57;26.32;98211.22;5114160;28;19920;-87
2023/07/15 04:43:42;;;;;;;;;;;;;;;35.77;25.78;98216.78;5111800;28;19920;-87
2023/07/15 04:46:09;;;;;;;;;;;;;;;35.82;26.20;98215.25;5096134;28;19916;-87
2023/07/15 04:48:35;;;;;;;;;;;;;;;35.85;26.07;98219.97;5108436;28;19965;-86
2023/07/15 04:51:01;;;;;;;;;;;;;;;35.81;25.36;98211.59;5110041;28;19916;-87
2023/07/15 04:53:27;;;;;;;;;;;;;;;35.88;26.02;98219.69;5108377;28;19924;-86
2023/07/15 04:55:53;;;;;;;;;;;;;;;35.92;26.60;98228.03;5111532;28;20331;-87
2023/07/15 04:58:19;;;;;;;;;;;;;;;35.99;26.63;98219.00;5110533;28;19927;-87
2023/07/15 05:00:45;;;;;;;;;;;;;;;36.04;26.46;98227.59;5110851;28;20413;-87
2023/07/15 05:03:12;;;;;;;;;;;;;;;36.26;25.70;98226.13;5095277;28;19912;-87
2023/07/15 05:05:40;;;;;;;;;;;;;;;36.27;26.20;98225.59;5103001;28;20038;-87
2023/07/15 05:08:10;;;;;;;;;;;;;;;36.54;26.08;98218.44;5106433;28;19951;-87
2023/07/15 05:10:36;;;;;;;;;;;;;;;36.44;26.97;98214.22;5094973;28;19920;-87
2023/07/15 05:13:02;;;;;;;;;;;;;;;36.48;26.06;98218.41;5106767;28;19971;-87
2023/07/15 05:15:28;;;;;;;;;;;;;;;36.64;26.50;98216.91;5113416;28;19981;-87
2023/07/15 05:17:54;;;;;;;;;;;;;;;36.61;26.99;98223.66;5113458;28;20291;-87
2023/07/15 05:20:20;;;;;;;;;;;;;;;36.79;27.15;98228.88;5113987;28;20268;-87
2023/07/15 05:22:46;;;;;;;;;;;;;;;36.80;25.54;98219.00;5111817;28;19968;-87
2023/07/15 05:25:15;;;;;;;;;;;;;;;36.63;26.08;98224.69;5111381;28;20354;-87
2023/07/15 05:27:41;;;;;;;;;;;;;;;36.50;26.26;98229.34;5097712;28;19920;-88
2023/07/15 05:30:08;;;;;;;;;;;;;;;36.68;26.65;98223.16;5112444;28;19919;-87
2023/07/15 05:32:34;;;;;;;;;;;;;;;36.99;25.42;98227.91;5106586;28;19950;-88
2023/07/15 05:35:00;;;;;;;;;;;;;;;36.86;25.82;98224.72;5105519;28;20368;-88
2023/07/15 05:37:26;;;;;;;;;;;;;;;36.76;27.09;98232.00;5102833;28;19923;-88
2023/07/15 05:39:52;;;;;;;;;;;;;;;36.95;27.63;98221.63;5111298;28;20311;-88
2023/07/15 05:42:19;;;;;;;;;;;;;;;37.26;26.71;98215.66;5106324;28;19928;-88
2023/07/15 05:44:46;;;;;;;;;;;;;;;37.29;26.43;98226.06;5107895;28;19962;-88
2023/07/15 05:47:12;;;;;;;;;;;;;;;37.54;27.21;98227.09;5098896;28;20010;-86
2023/07/15 05:49:38;;;;;;;;;;;;;;;37.78;25.68;98222.38;5107398;28;19988;-87
2023/07/15 05:52:04;;;;;;;;;;;;;;;37.63;26.37;98215.34;5109652;28;19924;-88
2023/07/15 05:54:30;;;;;;;;;;;;;;;37.74;27.51;98218.97;5095039;28;20473;-88
2023/07/15 05:56:56;;;;;;;;;;;;;;;38.04;26.67;98214.19;5104531;28;20500;-88
2023/07/15 05:59:22;;;;;;;;;;;;;;;37.99;26.61;98215.03;5113902;28;19923;-88
2023/07/15 06:01:48;;;;;;;;;;;;;;;37.80;26.59;98216.09;5114251;28;19972;-88
2023/07/15 06:04:14;;;;;;;;;;;;;;;37.36;26.03;98214.09;5114142;28;20336;-89
2023/07/15 06:06:40;;;;;;;;;;;;;;;37.07;26.46;98221.13;5114218;28;19924;-87
2023/07/15 06:09:06;;;;;;;;;;;;;;;37.15;26.73;98219.31;5092013;28;19946;-87
2023/07/15 06:11:32;;;;;;;;;;;;;;;37.31;26.68;98214.88;5104842;27;19931;-85
2023/07/15 06:14:03;;;;;;;;;;;;;;;37.58;25.58;98216.91;5100513;28;19980;-87
2023/07/15 06:16:29;;;;;;;;;;;;;;;38.16;24.12;98217.78;5112132;28;19966;-86
2023/07/15 06:18:55;;;;;;;;;;;;;;;38.65;23.69;98213.16;5106906;28;19933;-86
2023/07/15 06:21:21;;;;;;;;;;;;;;;39.13;22.62;98221.16;5076810;28;19928;-86
2023/07/15 06:23:48;;;;;;;;;;;;;;;39.51;23.43;98222.94;5114230;28;20387;-86
2023/07/15 06:26:14;;;;;;;;;;;;;;;39.60;23.19;98225.47;5109551;28;19920;-86
2023/07/15 06:28:40;;;;;;;;;;;;;;;39.59;22.36;98217.38;5094021;28;19916;-87
2023/07/15 06:31:06;;;;;;;;;;;;;;;39.51;23.11;98220.06;5106442;28;19920;-87
2023/07/15 06:33:33;;;;;;;;;;;;;;;39.55;22.80;98225.50;5105543;28;19957;-85
2023/07/15 06:35:59;;;;;;;;;;;;;;;39.28;23.24;98207.97;5108822;28;19924;-84
2023/07/15 06:38:28;;;;;;;;;;;;;;;39.26;23.91;98219.22;5100147;28;19924;-87
2023/07/15 06:40:54;;;;;;;;;;;;;;;39.31;23.16;98209.78;5106441;28;19947;-86
2023/07/15 06:43:20;;;;;;;;;;;;;;;39.13;23.08;98221.16;5111810;28;19919;-87
2023/07/15 06:45:47;;;;;;;;;;;;;;;39.49;23.23;98219.78;5108539;28;19919;-86
2023/07/15 06:48:13;;;;;;;;;;;;;;;39.47;23.96;98221.66;5113479;28;19931;-86
2023/07/15 06:50:40;;;;;;;;;;;;;;;39.34;23.72;98211.59;5112763;28;20022;-88
2023/07/15 06:53:06;;;;;;;;;;;;;;;39.23;23.31;98216.66;5114218;28;19974;-83
2023/07/15 06:55:32;;;;;;;;;;;;;;;39.26;23.47;98215.56;5113238;28;19923;-87
2023/07/15 06:58:01;;;;;;;;;;;;;;;39.61;23.09;98217.63;5112711;28;19973;-87
2023/07/15 07:00:28;;;;;;;;;;;;;;;39.27;22.83;98214.28;5107816;28;20011;-89
2023/07/15 07:02:54;;;;;;;;;;;;;;;39.14;23.64;98214.09;5114302;28;20260;-87
2023/07/15 07:05:20;;;;;;;;;;;;;;;39.11;23.92;98212.28;5113863;28;19930;-87
2023/07/15 07:07:46;;;;;;;;;;;;;;;39.58;23.35;98208.00;5113809;28;19916;-86
2023/07/15 07:10:12;;;;;;;;;;;;;;;39.88;23.25;98207.91;5092396;28;19971;-86
2023/07/15 07:12:38;;;;;;;;;;;;;;;39.68;23.24;98208.38;5099228;28;19921;-89
2023/07/15 07:15:05;;;;;;;;;;;;;;;39.86;21.91;98208.44;5107643;28;19916;-87
2023/07/15 07:17:31;;;;;;;;;;;;;;;39.80;23.00;98210.59;5106574;28;19916;-87
2023/07/15 07:19:58;;;;;;;;;;;;;;;39.59;23.74;98214.50;5099269;28;19920;-87
2023/07/15 07:22:24;;;;;;;;;;;;;;;39.28;23.71;98202.22;5107411;28;20434;-86
2023/07/15 07:24:51;;;;;;;;;;;;;;;39.65;23.26;98215.22;5103933;28;19974;-86
2023/07/15 07:27:18;;;;;;;;;;;;;;;39.82;22.94;98210.06;5105304;28;20014;-86
2023/07/15 07:29:44;;;;;;;;;;;;;;;39.60;21.78;98210.31;5105712;28;19919;-86
2023/07/15 07:32:10;;;;;;;;;;;;;;;39.21;25.26;98204.94;5104253;28;19927;-85
2023/07/15 07:34:36;;;;;;;;;;;;;;;39.76;23.46;98200.72;5103366;28;19919;-84
2023/07/15 07:37:03;;;;;;;;;;;;;;;40.12;21.60;98204.25;5106045;28;19928;-85
2023/07/15 07:39:29;;;;;;;;;;;;;;;40.17;22.18;98200.53;5092075;28;19997;-86
2023/07/15 07:41:55;;;;;;;;;;;;;;;40.35;23.27;98203.41;5102685;28;20062;-87
2023/07/15 07:44:21;;;;;;;;;;;;;;;40.60;21.37;98204.13;5105067;28;19928;-86
2023/07/15 07:46:47;;;;;;;;;;;;;;;40.55;21.22;98204.97;5107668;28;19926;-86
2023/07/15 07:49:13;;;;;;;;;;;;;;;40.36;21.07;98207.06;5113242;28;20032;-87
2023/07/15 07:51:39;;;;;;;;;;;;;;;40.40;22.27;98202.53;5112470;28;19985;-86
2023/07/15 07:54:05;;;;;;;;;;;;;;;40.60;22.57;98202.03;5103874;28;20290;-87
2023/07/15 07:56:31;;;;;;;;;;;;;;;40.58;21.74;98201.03;5107451;28;20441;-87
2023/07/15 07:58:59;;;;;;;;;;;;;;;40.76;22.40;98199.44;5095163;28;19916;-88
2023/07/15 08:01:25;;;;;;;;;;;;;;;40.85;22.62;98199.84;5113307;28;19920;-86
2023/07/15 08:03:53;;;;;;;;;;;;;;;40.96;20.36;98201.78;5108764;28;20021;-86
2023/07/15 08:06:19;;;;;;;;;;;;;;;40.88;21.05;98201.63;5102022;28;19973;-87
2023/07/15 08:08:45;;;;;;;;;;;;;;;40.85;21.27;98207.66;5098568;28;19920;-87
2023/07/15 08:11:11;;;;;;;;;;;;;;;40.72;21.74;98201.88;5096603;28;19970;-87
2023/07/15 08:13:37;;;;;;;;;;;;;;;40.86;20.54;98195.66;5100924;28;19923;-87
2023/07/15 08:16:04;;;;;;;;;;;;;;;41.10;21.35;98195.50;5116730;28;19915;-87
2023/07/15 08:18:30;;;;;;;;;;;;;;;41.02;22.30;98197.47;5117336;28;20013;-87
2023/07/15 08:20:56;;;;;;;;;;;;;;;41.07;21.31;98199.50;5116372;28;20014;-86
2023/07/15 08:23:22;;;;;;;;;;;;;;;41.28;21.03;98199.69;5117185;28;19920;-86
2023/07/15 08:25:48;;;;;;;;;;;;;;;41.43;20.42;98191.25;5107147;28;19944;-86
2023/07/15 08:28:14;;;;;;;;;;;;;;;41.37;19.85;98202.13;5112389;28;19927;-86
2023/07/15 08:30:40;;;;;;;;;;;;;;;41.13;20.62;98196.50;5114017;28;19912;-86
2023/07/15 08:33:06;;;;;;;;;;;;;;;41.13;21.02;98200.16;5109744;28;20052;-86
2023/07/15 08:35:34;;;;;;;;;;;;;;;40.60;20.71;98201.25;5115162;28;19935;-85
2023/07/15 08:38:00;;;;;;;;;;;;;;;40.67;21.30;98198.53;5116487;28;19923;-85
2023/07/15 08:40:26;;;;;;;;;;;;;;;40.75;20.68;98192.91;5113125;28;19920;-84
2023/07/15 08:42:53;;;;;;;;;;;;;;;40.40;21.24;98196.03;5115656;28;19943;-85
2023/07/15 08:45:19;;;;;;;;;;;;;;;40.26;21.61;98198.03;5113093;28;19924;-87
2023/07/15 08:47:46;;;;;;;;;;;;;;;40.74;21.52;98202.88;5108004;28;20287;-87
2023/07/15 08:50:15;;;;;;;;;;;;;;;40.98;20.49;98188.38;5109387;28;19985;-85
2023/07/15 08:52:44;;;;;;;;;;;;;;;41.19;20.88;98192.22;5092290;28;19920;-85
2023/07/15 08:55:12;;;;;;;;;;;;;;;41.00;21.53;98196.47;5092994;28;20003;-86
2023/07/15 08:57:38;;;;;;;;;;;;;;;40.74;20.89;98199.22;5107211;28;19920;-86
2023/07/15 09:00:08;;;;;;;;;;;;;;;40.81;20.11;98195.69;5105111;28;19927;-86
2023/07/15 09:02:37;;;;;;;;;;;;;;;41.04;20.44;98179.63;5094700;28;19946;-92
2023/07/15 09:05:05;;;;;;;;;;;;;;;41.08;20.09;98180.84;5110952;27;19945;-88
2023/07/15 09:07:31;;;;;;;;;;;;;;;41.03;21.38;98178.84;5105567;28;19943;-89
2023/07/15 09:10:04;;;;;;;;;;;;;;;41.02;20.73;98183.06;5111257;28;19916;-87
2023/07/15 09:12:30;;;;;;;;;;;;;;;40.84;19.62;98185.97;5098365;28;20383;-86
2023/07/15 09:14:55;;;;;;;;;;;;;;;40.73;19.88;98184.03;5106761;28;19930;-89
2023/07/15 09:17:23;;;;;;;;;;;;;;;40.63;19.80;98180.78;5101662;28;19923;-87
2023/07/15 09:19:50;;;;;;;;;;;;;;;40.98;19.40;98178.94;5104078;28;19916;-87
2023/07/15 09:22:16;;;;;;;;;;;;;;;40.86;20.11;98178.38;5109708;28;19927;-86
2023/07/15 09:24:42;;;;;;;;;;;;;;;41.00;20.44;98179.19;5099968;28;19929;-86
2023/07/15 09:27:08;;;;;;;;;;;;;;;41.36;20.59;98180.38;5094590;28;19920;-85
2023/07/15 09:29:35;;;;;;;;;;;;;;;41.62;19.50;98173.88;5108457;28;19915;-85
2023/07/15 09:32:01;;;;;;;;;;;;;;;41.77;19.27;98168.38;5104042;28;19920;-90
2023/07/15 09:34:27;;;;;;;;;;;;;;;41.86;20.48;98165.03;5109398;28;19923;-88
2023/07/15 09:36:54;;;;;;;;;;;;;;;41.90;19.53;98166.25;5105814;28;19924;-87
2023/07/15 09:39:22;;;;;;;;;;;;;;;41.80;19.63;98165.13;5107446;28;19964;-87
2023/07/15 09:42:04;;;;;;;;;;;;;;;41.95;20.11;98159.59;5104143;28;19999;-87
2023/07/15 09:44:40;;;;;;;;;;;;;;;41.96;18.74;98155.38;5109860;28;19920;-88
2023/07/15 09:47:07;;;;;;;;;;;;;;;41.66;20.51;98151.25;5102310;28;19980;-89
2023/07/15 09:49:33;;;;;;;;;;;;;;;40.94;19.49;98149.69;5114809;27;20016;-87
2023/07/15 09:52:00;;;;;;;;;;;;;;;40.78;21.44;98154.38;5103410;28;19931;-88
2023/07/15 09:54:28;;;;;;;;;;;;;;;41.37;21.02;98143.69;5103907;28;19980;-88
2023/07/15 09:56:59;;;;;;;;;;;;;;;41.88;18.93;98148.72;5105288;28;19923;-87
2023/07/15 09:59:27;;;;;;;;;;;;;;;42.20;17.64;98147.81;5094639;28;20326;-88
2023/07/15 10:01:56;;;;;;;;;;;;;;;41.94;19.38;98148.63;5077170;28;19923;-91
2023/07/15 10:04:25;;;;;;;;;;;;;;;41.85;18.76;98149.03;5109376;28;19963;-92
2023/07/15 10:06:53;;;;;;;;;;;;;;;42.12;18.11;98146.94;5109546;28;19930;-94
2023/07/15 10:09:19;;;;;;;;;;;;;;;42.27;18.63;98147.13;5105289;28;19960;-89
2023/07/15 10:11:46;;;;;;;;;;;;;;;42.24;17.83;98139.59;5103173;28;20500;-90
2023/07/15 10:14:12;;;;;;;;;;;;;;;42.14;18.42;98135.59;5105890;28;19924;-89
2023/07/15 10:16:38;;;;;;;;;;;;;;;42.14;19.28;98145.03;5113544;28;19920;-93
2023/07/15 10:19:05;;;;;;;;;;;;;;;42.29;18.39;98141.56;5114504;28;19924;-91
2023/07/15 10:21:31;;;;;;;;;;;;;;;42.21;19.89;98140.69;5108348;28;19981;-91
2023/07/15 10:24:08;;;;;;;;;;;;;;;42.47;18.51;98141.41;5089508;28;19924;-90
2023/07/15 10:26:34;;;;;;;;;;;;;;;42.49;18.87;98140.88;5115328;28;20298;-91
2023/07/15 10:29:01;;;;;;;;;;;;;;;42.58;19.03;98135.38;5105616;28;19920;-90
2023/07/15 10:31:27;;;;;;;;;;;;;;;42.39;19.63;98137.63;5108934;28;19926;-90
2023/07/15 10:33:54;;;;;;;;;;;;;;;42.25;20.17;98139.00;5103698;28;19966;-92
2023/07/15 10:36:35;;;;;;;;;;;;;;;42.55;18.32;98138.59;5104129;28;19924;-95
2023/07/15 10:39:11;;;;;;;;;;;;;;;43.05;18.18;98131.63;5088097;28;20217;-90
2023/07/15 10:41:44;;;;;;;;;;;;;;;43.18;17.48;98134.41;5113664;28;19920;-91
2023/07/15 10:44:23;;;;;;;;;;;;;;;43.05;18.50;98134.50;5114308;28;19919;-95
2023/07/15 10:46:58;;;;;;;;;;;;;;;43.00;17.45;98138.31;5109607;28;19920;-92
2023/07/15 10:49:27;;;;;;;;;;;;;;;42.46;19.48;98134.06;5103131;28;19920;-91
2023/07/15 10:51:54;;;;;;;;;;;;;;;42.75;19.39;98134.97;5113182;28;20307;-92
2023/07/15 10:54:27;;;;;;;;;;;;;;;42.70;18.72;98126.44;5112223;28;19916;-90
2023/07/15 10:56:53;;;;;;;;;;;;;;;42.56;19.31;98120.72;5108096;28;20010;-90
2023/07/15 10:59:32;;;;;;;;;;;;;;;42.98;19.42;98129.44;5094415;28;20019;-91
2023/07/15 11:01:59;;;;;;;;;;;;;;;43.05;18.87;98120.06;5093860;28;19969;-89
2023/07/15 11:04:25;;;;;;;;;;;;;;;43.37;19.08;98122.66;5107712;28;19919;-90
2023/07/15 11:06:51;;;;;;;;;;;;;;;43.50;18.04;98132.00;5110445;28;20413;-88
2023/07/15 11:09:18;;;;;;;;;;;;;;;43.47;17.11;98124.44;5100629;28;19920;-89
2023/07/15 11:11:44;;;;;;;;;;;;;;;43.55;17.79;98122.41;5113797;28;19925;-89
2023/07/15 11:14:24;;;;;;;;;;;;;;;43.20;18.51;98120.19;5095854;28;19916;-90
2023/07/15 11:16:54;;;;;;;;;;;;;;;43.49;17.29;98118.09;5103615;28;19920;-89
2023/07/15 11:19:21;;;;;;;;;;;;;;;43.02;17.59;98113.28;5099211;28;20011;-92
2023/07/15 11:21:47;;;;;;;;;;;;;;;43.13;17.75;98118.00;5102828;28;20283;-90
2023/07/15 11:24:14;;;;;;;;;;;;;;;43.57;17.35;98116.03;5118120;28;20314;-89
2023/07/15 11:26:40;;;;;;;;;;;;;;;43.34;17.41;98112.22;5108249;28;19977;-91
2023/07/15 11:29:13;;;;;;;;;;;;;;;43.26;16.38;98107.13;5109068;28;20344;-90
2023/07/15 11:31:40;;;;;;;;;;;;;;;43.35;15.88;98100.06;5108214;28;19922;-90
2023/07/15 11:34:09;;;;;;;;;;;;;;;43.36;18.15;98103.75;5106767;28;20308;-90
2023/07/15 11:36:37;;;;;;;;;;;;;;;43.71;17.18;98103.03;5110030;28;19920;-90
2023/07/15 11:39:04;;;;;;;;;;;;;;;43.29;17.02;98099.47;5117929;28;19927;-88
2023/07/15 11:41:31;;;;;;;;;;;;;;;43.29;18.92;98105.25;5097250;28;19951;-88
2023/07/15 11:43:57;;;;;;;;;;;;;;;43.45;17.42;98098.22;5104730;28;19916;-88
2023/07/15 11:46:23;;;;;;;;;;;;;;;43.82;16.23;98089.00;5117761;28;19919;-88
2023/07/15 11:48:49;;;;;;;;;;;;;;;44.05;16.95;98083.31;5115661;28;19930;-89
2023/07/15 11:51:15;;;;;;;;;;;;;;;44.01;16.94;98090.81;5108639;28;19963;-89
2023/07/15 11:53:44;;;;;;;;;;;;;;;43.67;16.42;98088.13;5101838;28;19916;-96
2023/07/15 11:56:10;;;;;;;;;;;;;;;43.75;15.74;98081.06;5114998;28;19927;-88
2023/07/15 11:58:49;;;;;;;;;;;;;;;43.53;16.79;98078.78;5103380;28;19962;-88
2023/07/15 12:01:16;;;;;;;;;;;;;;;43.56;16.74;98086.31;5104475;28;20383;-90
2023/07/15 12:03:43;;;;;;;;;;;;;;;42.93;17.58;98081.22;5107102;28;19966;-93
2023/07/15 12:06:13;;;;;;;;;;;;;;;43.31;16.05;98079.44;5103024;28;20007;-91
2023/07/15 12:08:39;;;;;;;;;;;;;;;43.32;16.43;98078.06;5110575;28;19955;-90
2023/07/15 12:11:05;;;;;;;;;;;;;;;42.74;17.87;98077.75;5104188;28;20842;-91
2023/07/15 12:13:31;;;;;;;;;;;;;;;43.46;17.26;98078.75;5103927;28;20396;-92
2023/07/15 12:15:59;;;;;;;;;;;;;;;43.71;16.19;98080.66;5091899;28;19947;-89
2023/07/15 12:18:25;;;;;;;;;;;;;;;43.41;16.21;98074.69;5106607;28;19946;-90
2023/07/15 12:20:51;;;;;;;;;;;;;;;43.66;17.60;98070.00;5106186;28;19926;-90
2023/07/15 12:23:17;;;;;;;;;;;;;;;44.05;16.01;98070.94;5105541;28;19919;-91
2023/07/15 12:25:43;;;;;;;;;;;;;;;44.48;17.51;98073.81;5107443;28;19924;-91
2023/07/15 12:28:09;;;;;;;;;;;;;;;44.38;16.55;98064.91;5089986;28;20385;-92
2023/07/15 12:30:35;;;;;;;;;;;;;;;44.09;16.19;98059.81;5105327;28;19923;-93
2023/07/15 12:33:01;;;;;;;;;;;;;;;43.69;17.74;98057.28;5111831;28;19928;-92
2023/07/15 12:35:27;;;;;;;;;;;;;;;43.87;17.04;98062.03;5107637;28;19945;-91
2023/07/15 12:37:53;;;;;;;;;;;;;;;43.89;16.95;98059.31;5101275;28;19928;-89
2023/07/15 12:40:19;;;;;;;;;;;;;;;44.03;16.33;98059.16;5104697;28;19968;-89
2023/07/15 12:42:45;;;;;;;;;;;;;;;43.82;16.40;98054.28;5106258;28;20383;-89
2023/07/15 12:45:14;;;;;;;;;;;;;;;43.53;16.90;98061.44;5106231;28;19927;-89
2023/07/15 12:47:40;;;;;;;;;;;;;;;43.79;17.03;98054.63;5106282;28;19916;-89